sensor_id;sensor_type;location;lat;lon;timestamp;P1;durP1;ratioP1;P2;durP2;ratioP2
79204;SDS011;68632;47.512;19.104;2024-01-10T00:00:02;34.72;;;19.20;;
79204;SDS011;68632;47.512;19.104;2024-01-10T00:01:05;39.08;;;19.52;;
79204;SDS011;68632;47.512;19.104;2024-01-10T00:02:07;38.75;;;20.20;;
79204;SDS011;68632;47.512;19.104;2024-01-10T00:03:09;36.67;;;21.42;;
79204;SDS011;68632;47.512;19.104;2024-01-10T00:04:11;42.15;;;21.17;;
79204;SDS011;68632;47.512;19.104;2024-01-10T00:05:14;34.67;;;20.52;;
79204;SDS011;68632;47.512;19.104;2024-01-10T00:06:20;41.92;;;22.02;;
79204;SDS011;68632;47.512;19.104;2024-01-10T00:07:22;44.17;;;19.83;;
79204;SDS011;68632;47.512;19.104;2024-01-10T00:08:25;43.25;;;21.67;;
79204;SDS011;68632;47.512;19.104;2024-01-10T00:09:27;37.45;;;19.58;;
79204;SDS011;68632;47.512;19.104;2024-01-10T00:10:29;42.40;;;20.67;;
79204;SDS011;68632;47.512;19.104;2024-01-10T00:11:31;41.25;;;19.92;;
79204;SDS011;68632;47.512;19.104;2024-01-10T00:12:36;30.58;;;18.98;;
79204;SDS011;68632;47.512;19.104;2024-01-10T00:13:38;50.00;;;21.33;;
79204;SDS011;68632;47.512;19.104;2024-01-10T00:14:40;38.65;;;20.35;;
79204;SDS011;68632;47.512;19.104;2024-01-10T00:15:42;41.03;;;20.10;;
79204;SDS011;68632;47.512;19.104;2024-01-10T00:16:45;35.25;;;19.42;;
79204;SDS011;68632;47.512;19.104;2024-01-10T00:17:47;41.72;;;20.48;;
79204;SDS011;68632;47.512;19.104;2024-01-10T00:18:49;36.85;;;19.67;;
79204;SDS011;68632;47.512;19.104;2024-01-10T00:19:51;46.35;;;21.45;;
79204;SDS011;68632;47.512;19.104;2024-01-10T00:20:54;39.95;;;21.55;;
79204;SDS011;68632;47.512;19.104;2024-01-10T00:21:56;46.05;;;19.75;;
79204;SDS011;68632;47.512;19.104;2024-01-10T00:22:58;36.13;;;19.42;;
79204;SDS011;68632;47.512;19.104;2024-01-10T00:24:01;38.90;;;21.23;;
79204;SDS011;68632;47.512;19.104;2024-01-10T00:25:03;41.92;;;22.55;;
79204;SDS011;68632;47.512;19.104;2024-01-10T00:26:06;42.63;;;21.95;;
79204;SDS011;68632;47.512;19.104;2024-01-10T00:27:08;43.63;;;21.33;;
79204;SDS011;68632;47.512;19.104;2024-01-10T00:28:11;38.30;;;20.73;;
79204;SDS011;68632;47.512;19.104;2024-01-10T00:29:14;39.95;;;21.30;;
79204;SDS011;68632;47.512;19.104;2024-01-10T00:30:16;37.60;;;20.08;;
79204;SDS011;68632;47.512;19.104;2024-01-10T00:31:18;50.38;;;23.45;;
79204;SDS011;68632;47.512;19.104;2024-01-10T00:32:20;39.25;;;22.50;;
79204;SDS011;68632;47.512;19.104;2024-01-10T00:33:23;38.17;;;20.85;;
79204;SDS011;68632;47.512;19.104;2024-01-10T00:34:25;47.13;;;22.10;;
79204;SDS011;68632;47.512;19.104;2024-01-10T00:35:27;45.03;;;22.30;;
79204;SDS011;68632;47.512;19.104;2024-01-10T00:36:29;45.88;;;21.95;;
79204;SDS011;68632;47.512;19.104;2024-01-10T00:37:32;45.65;;;22.27;;
79204;SDS011;68632;47.512;19.104;2024-01-10T00:38:34;39.00;;;21.83;;
79204;SDS011;68632;47.512;19.104;2024-01-10T00:39:36;39.47;;;20.38;;
79204;SDS011;68632;47.512;19.104;2024-01-10T00:40:38;37.42;;;20.27;;
79204;SDS011;68632;47.512;19.104;2024-01-10T00:41:40;38.08;;;20.80;;
79204;SDS011;68632;47.512;19.104;2024-01-10T00:42:43;38.53;;;19.88;;
79204;SDS011;68632;47.512;19.104;2024-01-10T00:43:45;41.00;;;20.80;;
79204;SDS011;68632;47.512;19.104;2024-01-10T00:44:47;38.67;;;20.27;;
79204;SDS011;68632;47.512;19.104;2024-01-10T00:45:49;36.97;;;20.85;;
79204;SDS011;68632;47.512;19.104;2024-01-10T00:46:51;43.88;;;20.85;;
79204;SDS011;68632;47.512;19.104;2024-01-10T00:47:54;36.00;;;21.33;;
79204;SDS011;68632;47.512;19.104;2024-01-10T00:48:56;38.83;;;20.15;;
79204;SDS011;68632;47.512;19.104;2024-01-10T00:49:58;44.45;;;20.63;;
79204;SDS011;68632;47.512;19.104;2024-01-10T00:51:00;34.80;;;19.02;;
79204;SDS011;68632;47.512;19.104;2024-01-10T00:52:10;42.00;;;20.13;;
79204;SDS011;68632;47.512;19.104;2024-01-10T00:53:18;42.75;;;21.90;;
79204;SDS011;68632;47.512;19.104;2024-01-10T00:54:21;42.67;;;21.20;;
79204;SDS011;68632;47.512;19.104;2024-01-10T00:55:24;40.25;;;20.20;;
79204;SDS011;68632;47.512;19.104;2024-01-10T00:56:27;37.10;;;20.73;;
79204;SDS011;68632;47.512;19.104;2024-01-10T00:57:31;41.13;;;20.52;;
79204;SDS011;68632;47.512;19.104;2024-01-10T00:58:35;32.90;;;19.35;;
79204;SDS011;68632;47.512;19.104;2024-01-10T00:59:38;38.78;;;20.17;;
79204;SDS011;68632;47.512;19.104;2024-01-10T01:00:42;46.40;;;19.75;;
79204;SDS011;68632;47.512;19.104;2024-01-10T01:01:45;38.42;;;20.27;;
79204;SDS011;68632;47.512;19.104;2024-01-10T01:02:48;40.05;;;20.27;;
79204;SDS011;68632;47.512;19.104;2024-01-10T01:03:51;35.45;;;18.85;;
79204;SDS011;68632;47.512;19.104;2024-01-10T01:04:54;40.72;;;20.25;;
79204;SDS011;68632;47.512;19.104;2024-01-10T01:05:56;39.17;;;20.05;;
79204;SDS011;68632;47.512;19.104;2024-01-10T01:07:00;37.88;;;19.42;;
79204;SDS011;68632;47.512;19.104;2024-01-10T01:08:02;39.33;;;20.30;;
79204;SDS011;68632;47.512;19.104;2024-01-10T01:09:05;40.80;;;20.23;;
79204;SDS011;68632;47.512;19.104;2024-01-10T01:10:09;38.33;;;20.10;;
79204;SDS011;68632;47.512;19.104;2024-01-10T01:11:12;42.33;;;21.15;;
79204;SDS011;68632;47.512;19.104;2024-01-10T01:12:16;38.28;;;20.73;;
79204;SDS011;68632;47.512;19.104;2024-01-10T01:13:19;38.47;;;19.15;;
79204;SDS011;68632;47.512;19.104;2024-01-10T01:14:23;38.45;;;19.58;;
79204;SDS011;68632;47.512;19.104;2024-01-10T01:15:26;36.50;;;19.27;;
79204;SDS011;68632;47.512;19.104;2024-01-10T01:16:29;35.30;;;21.33;;
79204;SDS011;68632;47.512;19.104;2024-01-10T01:17:31;36.70;;;19.27;;
79204;SDS011;68632;47.512;19.104;2024-01-10T01:18:34;36.58;;;19.20;;
79204;SDS011;68632;47.512;19.104;2024-01-10T01:19:37;35.05;;;19.20;;
79204;SDS011;68632;47.512;19.104;2024-01-10T01:20:40;35.92;;;18.25;;
79204;SDS011;68632;47.512;19.104;2024-01-10T01:21:43;37.80;;;19.75;;
79204;SDS011;68632;47.512;19.104;2024-01-10T01:22:46;36.13;;;20.48;;
79204;SDS011;68632;47.512;19.104;2024-01-10T01:23:48;36.15;;;20.05;;
79204;SDS011;68632;47.512;19.104;2024-01-10T01:24:51;37.58;;;21.00;;
79204;SDS011;68632;47.512;19.104;2024-01-10T01:25:53;33.97;;;19.35;;
79204;SDS011;68632;47.512;19.104;2024-01-10T01:26:55;37.95;;;18.95;;
79204;SDS011;68632;47.512;19.104;2024-01-10T01:27:58;39.65;;;19.98;;
79204;SDS011;68632;47.512;19.104;2024-01-10T01:29:00;40.40;;;19.88;;
79204;SDS011;68632;47.512;19.104;2024-01-10T01:30:02;39.25;;;20.42;;
79204;SDS011;68632;47.512;19.104;2024-01-10T01:31:05;41.53;;;19.52;;
79204;SDS011;68632;47.512;19.104;2024-01-10T01:32:07;37.47;;;19.80;;
79204;SDS011;68632;47.512;19.104;2024-01-10T01:33:10;40.50;;;21.88;;
79204;SDS011;68632;47.512;19.104;2024-01-10T01:34:12;40.22;;;20.50;;
79204;SDS011;68632;47.512;19.104;2024-01-10T01:35:15;36.63;;;20.55;;
79204;SDS011;68632;47.512;19.104;2024-01-10T01:36:24;41.25;;;20.42;;
79204;SDS011;68632;47.512;19.104;2024-01-10T01:37:26;39.45;;;17.83;;
79204;SDS011;68632;47.512;19.104;2024-01-10T01:38:29;40.67;;;19.90;;
79204;SDS011;68632;47.512;19.104;2024-01-10T01:39:32;39.00;;;20.48;;
79204;SDS011;68632;47.512;19.104;2024-01-10T01:40:35;34.72;;;19.27;;
79204;SDS011;68632;47.512;19.104;2024-01-10T01:41:37;35.72;;;18.92;;
79204;SDS011;68632;47.512;19.104;2024-01-10T01:42:40;34.83;;;19.98;;
79204;SDS011;68632;47.512;19.104;2024-01-10T01:43:43;39.30;;;19.90;;
79204;SDS011;68632;47.512;19.104;2024-01-10T01:44:46;40.75;;;19.52;;
79204;SDS011;68632;47.512;19.104;2024-01-10T01:45:50;39.58;;;21.38;;
79204;SDS011;68632;47.512;19.104;2024-01-10T01:46:54;37.25;;;19.85;;
79204;SDS011;68632;47.512;19.104;2024-01-10T01:47:57;38.63;;;19.88;;
79204;SDS011;68632;47.512;19.104;2024-01-10T01:49:00;42.70;;;21.23;;
79204;SDS011;68632;47.512;19.104;2024-01-10T01:50:04;45.55;;;19.70;;
79204;SDS011;68632;47.512;19.104;2024-01-10T01:51:08;35.58;;;19.50;;
79204;SDS011;68632;47.512;19.104;2024-01-10T01:52:11;45.42;;;21.38;;
79204;SDS011;68632;47.512;19.104;2024-01-10T01:53:14;38.53;;;20.92;;
79204;SDS011;68632;47.512;19.104;2024-01-10T01:54:17;34.30;;;19.92;;
79204;SDS011;68632;47.512;19.104;2024-01-10T01:55:23;42.05;;;20.70;;
79204;SDS011;68632;47.512;19.104;2024-01-10T01:56:26;37.45;;;20.83;;
79204;SDS011;68632;47.512;19.104;2024-01-10T01:57:29;37.80;;;19.35;;
79204;SDS011;68632;47.512;19.104;2024-01-10T01:58:31;39.22;;;18.83;;
79204;SDS011;68632;47.512;19.104;2024-01-10T01:59:33;37.75;;;19.08;;
79204;SDS011;68632;47.512;19.104;2024-01-10T02:00:35;38.08;;;20.35;;
79204;SDS011;68632;47.512;19.104;2024-01-10T02:01:39;38.78;;;18.92;;
79204;SDS011;68632;47.512;19.104;2024-01-10T02:02:42;38.42;;;18.15;;
79204;SDS011;68632;47.512;19.104;2024-01-10T02:03:45;44.75;;;21.13;;
79204;SDS011;68632;47.512;19.104;2024-01-10T02:04:48;37.22;;;18.70;;
79204;SDS011;68632;47.512;19.104;2024-01-10T02:05:50;36.20;;;20.35;;
79204;SDS011;68632;47.512;19.104;2024-01-10T02:06:52;31.25;;;17.23;;
79204;SDS011;68632;47.512;19.104;2024-01-10T02:07:54;33.63;;;18.50;;
79204;SDS011;68632;47.512;19.104;2024-01-10T02:08:57;33.70;;;18.92;;
79204;SDS011;68632;47.512;19.104;2024-01-10T02:09:59;38.95;;;19.58;;
79204;SDS011;68632;47.512;19.104;2024-01-10T02:11:02;36.42;;;19.48;;
79204;SDS011;68632;47.512;19.104;2024-01-10T02:12:05;35.88;;;19.60;;
79204;SDS011;68632;47.512;19.104;2024-01-10T02:13:07;37.33;;;18.83;;
79204;SDS011;68632;47.512;19.104;2024-01-10T02:14:11;38.78;;;18.00;;
79204;SDS011;68632;47.512;19.104;2024-01-10T02:15:14;36.28;;;19.17;;
79204;SDS011;68632;47.512;19.104;2024-01-10T02:16:16;41.95;;;21.42;;
79204;SDS011;68632;47.512;19.104;2024-01-10T02:17:20;39.60;;;18.98;;
79204;SDS011;68632;47.512;19.104;2024-01-10T02:18:22;37.33;;;20.02;;
79204;SDS011;68632;47.512;19.104;2024-01-10T02:19:24;42.40;;;20.92;;
79204;SDS011;68632;47.512;19.104;2024-01-10T02:20:28;32.45;;;21.15;;
79204;SDS011;68632;47.512;19.104;2024-01-10T02:21:30;44.33;;;19.55;;
79204;SDS011;68632;47.512;19.104;2024-01-10T02:22:33;35.80;;;17.40;;
79204;SDS011;68632;47.512;19.104;2024-01-10T02:23:35;37.92;;;20.48;;
79204;SDS011;68632;47.512;19.104;2024-01-10T02:24:37;38.13;;;19.63;;
79204;SDS011;68632;47.512;19.104;2024-01-10T02:25:40;30.60;;;18.98;;
79204;SDS011;68632;47.512;19.104;2024-01-10T02:26:42;39.47;;;18.77;;
79204;SDS011;68632;47.512;19.104;2024-01-10T02:27:45;40.63;;;19.70;;
79204;SDS011;68632;47.512;19.104;2024-01-10T02:28:47;37.65;;;19.65;;
79204;SDS011;68632;47.512;19.104;2024-01-10T02:29:49;37.85;;;20.08;;
79204;SDS011;68632;47.512;19.104;2024-01-10T02:30:52;40.00;;;19.55;;
79204;SDS011;68632;47.512;19.104;2024-01-10T02:31:54;32.33;;;17.63;;
79204;SDS011;68632;47.512;19.104;2024-01-10T02:32:57;32.85;;;18.88;;
79204;SDS011;68632;47.512;19.104;2024-01-10T02:34:00;41.55;;;19.42;;
79204;SDS011;68632;47.512;19.104;2024-01-10T02:35:02;31.88;;;18.25;;
79204;SDS011;68632;47.512;19.104;2024-01-10T02:36:05;36.90;;;17.52;;
79204;SDS011;68632;47.512;19.104;2024-01-10T02:37:07;33.70;;;18.73;;
79204;SDS011;68632;47.512;19.104;2024-01-10T02:38:09;35.30;;;19.20;;
79204;SDS011;68632;47.512;19.104;2024-01-10T02:39:12;37.58;;;19.42;;
79204;SDS011;68632;47.512;19.104;2024-01-10T02:40:14;32.60;;;19.23;;
79204;SDS011;68632;47.512;19.104;2024-01-10T02:41:16;38.90;;;20.13;;
79204;SDS011;68632;47.512;19.104;2024-01-10T02:42:18;36.70;;;19.83;;
79204;SDS011;68632;47.512;19.104;2024-01-10T02:43:20;42.72;;;19.85;;
79204;SDS011;68632;47.512;19.104;2024-01-10T02:44:23;39.45;;;18.55;;
79204;SDS011;68632;47.512;19.104;2024-01-10T02:45:25;36.85;;;18.80;;
79204;SDS011;68632;47.512;19.104;2024-01-10T02:46:27;40.85;;;20.75;;
79204;SDS011;68632;47.512;19.104;2024-01-10T02:47:29;36.17;;;19.40;;
79204;SDS011;68632;47.512;19.104;2024-01-10T02:48:32;34.15;;;18.48;;
79204;SDS011;68632;47.512;19.104;2024-01-10T02:49:34;38.40;;;18.88;;
79204;SDS011;68632;47.512;19.104;2024-01-10T02:50:36;36.92;;;19.02;;
79204;SDS011;68632;47.512;19.104;2024-01-10T02:51:40;38.70;;;21.27;;
79204;SDS011;68632;47.512;19.104;2024-01-10T02:52:42;31.83;;;17.98;;
79204;SDS011;68632;47.512;19.104;2024-01-10T02:53:44;33.35;;;21.10;;
79204;SDS011;68632;47.512;19.104;2024-01-10T02:54:47;36.53;;;18.92;;
79204;SDS011;68632;47.512;19.104;2024-01-10T02:55:49;37.55;;;20.23;;
79204;SDS011;68632;47.512;19.104;2024-01-10T02:56:52;39.45;;;20.33;;
79204;SDS011;68632;47.512;19.104;2024-01-10T02:57:54;38.40;;;19.92;;
79204;SDS011;68632;47.512;19.104;2024-01-10T02:58:56;39.90;;;20.25;;
79204;SDS011;68632;47.512;19.104;2024-01-10T02:59:58;35.20;;;17.88;;
79204;SDS011;68632;47.512;19.104;2024-01-10T03:01:01;34.13;;;19.50;;
79204;SDS011;68632;47.512;19.104;2024-01-10T03:02:03;39.80;;;19.02;;
79204;SDS011;68632;47.512;19.104;2024-01-10T03:03:05;38.95;;;20.48;;
79204;SDS011;68632;47.512;19.104;2024-01-10T03:04:08;32.92;;;19.05;;
79204;SDS011;68632;47.512;19.104;2024-01-10T03:05:10;38.65;;;19.80;;
79204;SDS011;68632;47.512;19.104;2024-01-10T03:06:12;33.55;;;19.35;;
79204;SDS011;68632;47.512;19.104;2024-01-10T03:07:14;36.85;;;18.75;;
79204;SDS011;68632;47.512;19.104;2024-01-10T03:08:17;36.40;;;18.83;;
79204;SDS011;68632;47.512;19.104;2024-01-10T03:09:19;31.95;;;18.42;;
79204;SDS011;68632;47.512;19.104;2024-01-10T03:10:21;29.98;;;16.83;;
79204;SDS011;68632;47.512;19.104;2024-01-10T03:11:23;32.90;;;18.83;;
79204;SDS011;68632;47.512;19.104;2024-01-10T03:12:26;32.47;;;17.30;;
79204;SDS011;68632;47.512;19.104;2024-01-10T03:13:28;30.83;;;16.63;;
79204;SDS011;68632;47.512;19.104;2024-01-10T03:14:30;35.85;;;16.58;;
79204;SDS011;68632;47.512;19.104;2024-01-10T03:15:32;32.55;;;16.40;;
79204;SDS011;68632;47.512;19.104;2024-01-10T03:16:34;34.33;;;16.50;;
79204;SDS011;68632;47.512;19.104;2024-01-10T03:17:37;27.13;;;15.73;;
79204;SDS011;68632;47.512;19.104;2024-01-10T03:18:39;30.90;;;16.50;;
79204;SDS011;68632;47.512;19.104;2024-01-10T03:19:41;28.25;;;15.88;;
79204;SDS011;68632;47.512;19.104;2024-01-10T03:20:46;27.55;;;16.27;;
79204;SDS011;68632;47.512;19.104;2024-01-10T03:21:48;32.75;;;16.55;;
79204;SDS011;68632;47.512;19.104;2024-01-10T03:22:51;27.98;;;16.38;;
79204;SDS011;68632;47.512;19.104;2024-01-10T03:23:56;33.20;;;17.15;;
79204;SDS011;68632;47.512;19.104;2024-01-10T03:24:59;30.92;;;15.60;;
79204;SDS011;68632;47.512;19.104;2024-01-10T03:26:01;32.50;;;16.92;;
79204;SDS011;68632;47.512;19.104;2024-01-10T03:27:04;31.17;;;14.38;;
79204;SDS011;68632;47.512;19.104;2024-01-10T03:28:06;28.83;;;15.32;;
79204;SDS011;68632;47.512;19.104;2024-01-10T03:29:09;27.65;;;14.80;;
79204;SDS011;68632;47.512;19.104;2024-01-10T03:30:11;30.85;;;13.82;;
79204;SDS011;68632;47.512;19.104;2024-01-10T03:31:13;30.48;;;15.77;;
79204;SDS011;68632;47.512;19.104;2024-01-10T03:32:15;30.70;;;16.98;;
79204;SDS011;68632;47.512;19.104;2024-01-10T03:33:18;32.83;;;14.50;;
79204;SDS011;68632;47.512;19.104;2024-01-10T03:34:20;30.55;;;16.48;;
79204;SDS011;68632;47.512;19.104;2024-01-10T03:35:22;32.47;;;16.85;;
79204;SDS011;68632;47.512;19.104;2024-01-10T03:36:25;26.92;;;14.73;;
79204;SDS011;68632;47.512;19.104;2024-01-10T03:37:27;25.38;;;15.23;;
79204;SDS011;68632;47.512;19.104;2024-01-10T03:38:29;37.33;;;16.60;;
79204;SDS011;68632;47.512;19.104;2024-01-10T03:39:32;29.70;;;16.83;;
79204;SDS011;68632;47.512;19.104;2024-01-10T03:40:34;28.40;;;14.93;;
79204;SDS011;68632;47.512;19.104;2024-01-10T03:41:36;24.42;;;14.93;;
79204;SDS011;68632;47.512;19.104;2024-01-10T03:42:38;28.73;;;14.32;;
79204;SDS011;68632;47.512;19.104;2024-01-10T03:43:41;30.33;;;15.85;;
79204;SDS011;68632;47.512;19.104;2024-01-10T03:44:43;28.90;;;16.27;;
79204;SDS011;68632;47.512;19.104;2024-01-10T03:45:46;28.33;;;15.25;;
79204;SDS011;68632;47.512;19.104;2024-01-10T03:46:48;33.28;;;15.20;;
79204;SDS011;68632;47.512;19.104;2024-01-10T03:47:50;27.48;;;14.73;;
79204;SDS011;68632;47.512;19.104;2024-01-10T03:48:53;32.03;;;14.90;;
79204;SDS011;68632;47.512;19.104;2024-01-10T03:49:55;25.52;;;14.38;;
79204;SDS011;68632;47.512;19.104;2024-01-10T03:50:58;27.38;;;15.60;;
79204;SDS011;68632;47.512;19.104;2024-01-10T03:52:00;31.40;;;14.73;;
79204;SDS011;68632;47.512;19.104;2024-01-10T03:53:03;32.20;;;15.15;;
79204;SDS011;68632;47.512;19.104;2024-01-10T03:54:06;26.80;;;13.50;;
79204;SDS011;68632;47.512;19.104;2024-01-10T03:55:08;25.90;;;13.85;;
79204;SDS011;68632;47.512;19.104;2024-01-10T03:56:13;33.00;;;14.95;;
79204;SDS011;68632;47.512;19.104;2024-01-10T03:57:15;26.83;;;14.38;;
79204;SDS011;68632;47.512;19.104;2024-01-10T03:58:17;30.20;;;14.70;;
79204;SDS011;68632;47.512;19.104;2024-01-10T03:59:20;28.98;;;14.13;;
79204;SDS011;68632;47.512;19.104;2024-01-10T04:00:22;26.90;;;14.88;;
79204;SDS011;68632;47.512;19.104;2024-01-10T04:01:24;22.95;;;14.27;;
79204;SDS011;68632;47.512;19.104;2024-01-10T04:02:26;25.33;;;14.68;;
79204;SDS011;68632;47.512;19.104;2024-01-10T04:03:30;28.00;;;14.98;;
79204;SDS011;68632;47.512;19.104;2024-01-10T04:04:32;26.58;;;15.20;;
79204;SDS011;68632;47.512;19.104;2024-01-10T04:05:34;33.45;;;14.73;;
79204;SDS011;68632;47.512;19.104;2024-01-10T04:06:36;30.50;;;14.20;;
79204;SDS011;68632;47.512;19.104;2024-01-10T04:07:41;22.23;;;13.80;;
79204;SDS011;68632;47.512;19.104;2024-01-10T04:08:45;24.63;;;14.68;;
79204;SDS011;68632;47.512;19.104;2024-01-10T04:09:47;24.48;;;12.93;;
79204;SDS011;68632;47.512;19.104;2024-01-10T04:10:49;22.13;;;13.23;;
79204;SDS011;68632;47.512;19.104;2024-01-10T04:11:52;25.15;;;12.98;;
79204;SDS011;68632;47.512;19.104;2024-01-10T04:12:54;22.50;;;13.73;;
79204;SDS011;68632;47.512;19.104;2024-01-10T04:13:56;23.23;;;13.70;;
79204;SDS011;68632;47.512;19.104;2024-01-10T04:14:58;22.08;;;13.95;;
79204;SDS011;68632;47.512;19.104;2024-01-10T04:16:00;28.45;;;14.68;;
79204;SDS011;68632;47.512;19.104;2024-01-10T04:17:03;26.35;;;15.75;;
79204;SDS011;68632;47.512;19.104;2024-01-10T04:18:06;31.05;;;15.55;;
79204;SDS011;68632;47.512;19.104;2024-01-10T04:19:09;29.88;;;15.10;;
79204;SDS011;68632;47.512;19.104;2024-01-10T04:20:11;31.13;;;14.90;;
79204;SDS011;68632;47.512;19.104;2024-01-10T04:21:14;25.15;;;14.25;;
79204;SDS011;68632;47.512;19.104;2024-01-10T04:22:16;25.02;;;14.88;;
79204;SDS011;68632;47.512;19.104;2024-01-10T04:23:18;31.17;;;15.18;;
79204;SDS011;68632;47.512;19.104;2024-01-10T04:24:20;26.05;;;14.95;;
79204;SDS011;68632;47.512;19.104;2024-01-10T04:25:23;27.10;;;13.32;;
79204;SDS011;68632;47.512;19.104;2024-01-10T04:26:25;29.08;;;15.65;;
79204;SDS011;68632;47.512;19.104;2024-01-10T04:27:27;26.95;;;14.55;;
79204;SDS011;68632;47.512;19.104;2024-01-10T04:28:29;27.45;;;14.45;;
79204;SDS011;68632;47.512;19.104;2024-01-10T04:29:31;27.77;;;14.20;;
79204;SDS011;68632;47.512;19.104;2024-01-10T04:30:33;27.45;;;14.07;;
79204;SDS011;68632;47.512;19.104;2024-01-10T04:31:36;22.30;;;12.35;;
79204;SDS011;68632;47.512;19.104;2024-01-10T04:32:38;29.92;;;14.25;;
79204;SDS011;68632;47.512;19.104;2024-01-10T04:33:40;26.27;;;14.23;;
79204;SDS011;68632;47.512;19.104;2024-01-10T04:34:42;32.95;;;14.45;;
79204;SDS011;68632;47.512;19.104;2024-01-10T04:35:45;26.80;;;13.45;;
79204;SDS011;68632;47.512;19.104;2024-01-10T04:36:47;24.70;;;13.63;;
79204;SDS011;68632;47.512;19.104;2024-01-10T04:37:49;26.05;;;14.75;;
79204;SDS011;68632;47.512;19.104;2024-01-10T04:38:51;32.55;;;14.23;;
79204;SDS011;68632;47.512;19.104;2024-01-10T04:39:54;30.50;;;15.05;;
79204;SDS011;68632;47.512;19.104;2024-01-10T04:40:56;27.98;;;14.27;;
79204;SDS011;68632;47.512;19.104;2024-01-10T04:41:58;31.35;;;16.77;;
79204;SDS011;68632;47.512;19.104;2024-01-10T04:43:01;30.48;;;15.90;;
79204;SDS011;68632;47.512;19.104;2024-01-10T04:44:03;26.75;;;14.05;;
79204;SDS011;68632;47.512;19.104;2024-01-10T04:45:05;29.02;;;14.68;;
79204;SDS011;68632;47.512;19.104;2024-01-10T04:46:09;29.38;;;16.77;;
79204;SDS011;68632;47.512;19.104;2024-01-10T04:47:12;26.15;;;14.23;;
79204;SDS011;68632;47.512;19.104;2024-01-10T04:48:14;26.38;;;15.05;;
79204;SDS011;68632;47.512;19.104;2024-01-10T04:49:17;25.70;;;14.00;;
79204;SDS011;68632;47.512;19.104;2024-01-10T04:50:19;29.95;;;14.50;;
79204;SDS011;68632;47.512;19.104;2024-01-10T04:51:21;24.50;;;14.43;;
79204;SDS011;68632;47.512;19.104;2024-01-10T04:52:24;27.25;;;15.23;;
79204;SDS011;68632;47.512;19.104;2024-01-10T04:53:26;31.08;;;14.18;;
79204;SDS011;68632;47.512;19.104;2024-01-10T04:54:28;27.65;;;13.80;;
79204;SDS011;68632;47.512;19.104;2024-01-10T04:55:30;25.17;;;14.25;;
79204;SDS011;68632;47.512;19.104;2024-01-10T04:56:33;24.10;;;15.85;;
79204;SDS011;68632;47.512;19.104;2024-01-10T04:57:35;33.70;;;16.50;;
79204;SDS011;68632;47.512;19.104;2024-01-10T04:58:37;28.35;;;15.02;;
79204;SDS011;68632;47.512;19.104;2024-01-10T04:59:39;29.15;;;16.42;;
79204;SDS011;68632;47.512;19.104;2024-01-10T05:00:41;33.20;;;15.55;;
79204;SDS011;68632;47.512;19.104;2024-01-10T05:01:43;29.67;;;15.88;;
79204;SDS011;68632;47.512;19.104;2024-01-10T05:02:46;30.08;;;16.35;;
79204;SDS011;68632;47.512;19.104;2024-01-10T05:03:48;31.48;;;15.05;;
79204;SDS011;68632;47.512;19.104;2024-01-10T05:04:51;31.48;;;16.73;;
79204;SDS011;68632;47.512;19.104;2024-01-10T05:05:53;33.63;;;16.63;;
79204;SDS011;68632;47.512;19.104;2024-01-10T05:06:55;34.17;;;15.32;;
79204;SDS011;68632;47.512;19.104;2024-01-10T05:07:57;28.15;;;16.40;;
79204;SDS011;68632;47.512;19.104;2024-01-10T05:09:00;33.75;;;16.73;;
79204;SDS011;68632;47.512;19.104;2024-01-10T05:10:02;32.85;;;16.25;;
79204;SDS011;68632;47.512;19.104;2024-01-10T05:11:04;31.15;;;16.77;;
79204;SDS011;68632;47.512;19.104;2024-01-10T05:12:07;30.33;;;16.90;;
79204;SDS011;68632;47.512;19.104;2024-01-10T05:13:09;36.25;;;18.05;;
79204;SDS011;68632;47.512;19.104;2024-01-10T05:14:11;28.75;;;16.65;;
79204;SDS011;68632;47.512;19.104;2024-01-10T05:15:13;38.00;;;16.75;;
79204;SDS011;68632;47.512;19.104;2024-01-10T05:16:16;33.70;;;17.08;;
79204;SDS011;68632;47.512;19.104;2024-01-10T05:17:19;32.10;;;16.30;;
79204;SDS011;68632;47.512;19.104;2024-01-10T05:18:21;32.05;;;14.60;;
79204;SDS011;68632;47.512;19.104;2024-01-10T05:19:23;31.58;;;16.40;;
79204;SDS011;68632;47.512;19.104;2024-01-10T05:20:25;25.35;;;15.48;;
79204;SDS011;68632;47.512;19.104;2024-01-10T05:21:28;29.20;;;15.85;;
79204;SDS011;68632;47.512;19.104;2024-01-10T05:22:31;33.00;;;18.35;;
79204;SDS011;68632;47.512;19.104;2024-01-10T05:23:34;28.95;;;15.73;;
79204;SDS011;68632;47.512;19.104;2024-01-10T05:24:36;30.98;;;17.13;;
79204;SDS011;68632;47.512;19.104;2024-01-10T05:25:38;25.65;;;15.00;;
79204;SDS011;68632;47.512;19.104;2024-01-10T05:26:40;32.10;;;16.73;;
79204;SDS011;68632;47.512;19.104;2024-01-10T05:27:43;35.17;;;16.27;;
79204;SDS011;68632;47.512;19.104;2024-01-10T05:28:45;26.25;;;14.68;;
79204;SDS011;68632;47.512;19.104;2024-01-10T05:29:47;26.08;;;15.63;;
79204;SDS011;68632;47.512;19.104;2024-01-10T05:30:50;32.85;;;15.25;;
79204;SDS011;68632;47.512;19.104;2024-01-10T05:31:52;29.10;;;17.23;;
79204;SDS011;68632;47.512;19.104;2024-01-10T05:32:54;29.85;;;15.73;;
79204;SDS011;68632;47.512;19.104;2024-01-10T05:33:57;27.55;;;16.05;;
79204;SDS011;68632;47.512;19.104;2024-01-10T05:34:59;31.25;;;15.52;;
79204;SDS011;68632;47.512;19.104;2024-01-10T05:36:02;27.88;;;14.88;;
79204;SDS011;68632;47.512;19.104;2024-01-10T05:37:04;36.30;;;16.23;;
79204;SDS011;68632;47.512;19.104;2024-01-10T05:38:07;31.02;;;16.17;;
79204;SDS011;68632;47.512;19.104;2024-01-10T05:39:09;34.45;;;15.13;;
79204;SDS011;68632;47.512;19.104;2024-01-10T05:40:11;34.60;;;16.50;;
79204;SDS011;68632;47.512;19.104;2024-01-10T05:41:13;32.08;;;15.65;;
79204;SDS011;68632;47.512;19.104;2024-01-10T05:42:16;26.05;;;13.43;;
79204;SDS011;68632;47.512;19.104;2024-01-10T05:43:18;36.40;;;17.83;;
79204;SDS011;68632;47.512;19.104;2024-01-10T05:44:20;30.35;;;16.17;;
79204;SDS011;68632;47.512;19.104;2024-01-10T05:45:22;30.80;;;19.20;;
79204;SDS011;68632;47.512;19.104;2024-01-10T05:46:25;32.67;;;17.67;;
79204;SDS011;68632;47.512;19.104;2024-01-10T05:47:27;28.95;;;15.35;;
79204;SDS011;68632;47.512;19.104;2024-01-10T05:48:30;33.10;;;17.15;;
79204;SDS011;68632;47.512;19.104;2024-01-10T05:49:32;24.33;;;14.48;;
79204;SDS011;68632;47.512;19.104;2024-01-10T05:50:34;29.95;;;16.38;;
79204;SDS011;68632;47.512;19.104;2024-01-10T05:51:37;28.67;;;16.13;;
79204;SDS011;68632;47.512;19.104;2024-01-10T05:52:39;29.27;;;15.05;;
79204;SDS011;68632;47.512;19.104;2024-01-10T05:53:42;27.20;;;15.90;;
79204;SDS011;68632;47.512;19.104;2024-01-10T05:54:44;31.75;;;16.92;;
79204;SDS011;68632;47.512;19.104;2024-01-10T05:55:47;32.40;;;16.35;;
79204;SDS011;68632;47.512;19.104;2024-01-10T05:56:49;29.70;;;15.80;;
79204;SDS011;68632;47.512;19.104;2024-01-10T05:57:51;33.38;;;18.23;;
79204;SDS011;68632;47.512;19.104;2024-01-10T05:58:54;34.80;;;18.58;;
79204;SDS011;68632;47.512;19.104;2024-01-10T05:59:56;32.30;;;18.00;;